Time;durP1;ratioP1;P1;durP2;ratioP2;P2;SDS_P1;SDS_P2;PMS_P1;PMS_P2;Temp;Humidity;BMP_temperature;BMP_pressure;BME280_temperature;BME280_humidity;BME280_pressure;Samples;Min_cycle;Max_cycle;Signal;HPM_P1;HPM_P2
2021/08/19 00:00:12;;;;;;;7.32;3.97;;;;;;;;;;4962781;28;20058;-67
2021/08/19 00:02:38;;;;;;;8.30;4.05;;;;;;;;;;4987210;28;20105;-66
2021/08/19 00:05:04;;;;;;;5.43;3.85;;;;;;;;;;4979942;28;20038;-63
2021/08/19 00:07:30;;;;;;;5.65;3.83;;;;;;;;;;4979972;28;20122;-65
2021/08/19 00:09:57;;;;;;;16.10;4.22;;;;;;;;;;4979612;28;20029;-65
2021/08/19 00:12:23;;;;;;;12.82;3.90;;;;;;;;;;4980964;28;20090;-66
2021/08/19 00:14:49;;;;;;;6.47;3.70;;;;;;;;;;4981951;28;20473;-65
2021/08/19 00:17:15;;;;;;;8.65;3.60;;;;;;;;;;4984773;28;20065;-66
2021/08/19 00:19:41;;;;;;;6.68;3.70;;;;;;;;;;4981391;28;20034;-66
2021/08/19 00:22:08;;;;;;;9.75;4.00;;;;;;;;;;4982590;28;20047;-64
2021/08/19 00:24:34;;;;;;;8.93;3.80;;;;;;;;;;4981214;28;20030;-65
2021/08/19 00:27:00;;;;;;;8.75;3.97;;;;;;;;;;4983230;28;20034;-65
2021/08/19 00:29:26;;;;;;;8.57;3.58;;;;;;;;;;4980627;28;20401;-65
2021/08/19 00:31:52;;;;;;;9.02;3.97;;;;;;;;;;4974909;28;20499;-64
2021/08/19 00:34:18;;;;;;;4.80;3.15;;;;;;;;;;4979703;28;20033;-66
2021/08/19 00:36:44;;;;;;;4.97;3.55;;;;;;;;;;4976144;28;20074;-65
2021/08/19 00:39:13;;;;;;;7.05;3.92;;;;;;;;;;4974680;28;20385;-65
2021/08/19 00:41:39;;;;;;;6.43;3.78;;;;;;;;;;4962542;28;20513;-67
2021/08/19 00:44:06;;;;;;;5.10;3.60;;;;;;;;;;4982774;28;20031;-66
2021/08/19 00:46:33;;;;;;;7.40;3.67;;;;;;;;;;4981410;28;20428;-66
2021/08/19 00:49:00;;;;;;;6.65;3.70;;;;;;;;;;4983962;28;20500;-65
2021/08/19 00:51:27;;;;;;;5.20;3.42;;;;;;;;;;4981873;28;20037;-65
2021/08/19 00:53:53;;;;;;;6.90;3.70;;;;;;;;;;4982787;28;20018;-64
2021/08/19 00:56:19;;;;;;;5.75;3.22;;;;;;;;;;4980108;28;20031;-65
2021/08/19 00:58:45;;;;;;;6.75;3.20;;;;;;;;;;4981311;28;20193;-65
2021/08/19 01:01:11;;;;;;;5.38;3.47;;;;;;;;;;4977374;28;20058;-65
2021/08/19 01:03:37;;;;;;;5.00;3.40;;;;;;;;;;4982687;28;20050;-66
2021/08/19 01:06:04;;;;;;;5.38;3.47;;;;;;;;;;4978951;28;20035;-64
2021/08/19 01:08:30;;;;;;;5.25;3.35;;;;;;;;;;4979105;28;20031;-65
2021/08/19 01:10:56;;;;;;;5.28;3.50;;;;;;;;;;4975823;28;20361;-66
2021/08/19 01:13:22;;;;;;;5.78;3.33;;;;;;;;;;4973572;28;20045;-65
2021/08/19 01:15:48;;;;;;;6.63;3.47;;;;;;;;;;4976640;28;20026;-66
2021/08/19 01:18:14;;;;;;;8.93;3.28;;;;;;;;;;4975724;28;20030;-64
2021/08/19 01:20:40;;;;;;;6.88;3.67;;;;;;;;;;4986409;28;20551;-65
2021/08/19 01:23:07;;;;;;;5.90;3.17;;;;;;;;;;4974868;28;20045;-65
2021/08/19 01:25:33;;;;;;;5.80;3.30;;;;;;;;;;4968350;28;20022;-66
2021/08/19 01:27:59;;;;;;;7.00;3.80;;;;;;;;;;4979484;28;20029;-66
2021/08/19 01:30:26;;;;;;;10.70;3.38;;;;;;;;;;4974806;28;20058;-65
2021/08/19 01:32:52;;;;;;;5.15;3.50;;;;;;;;;;4977306;28;20472;-66
2021/08/19 01:35:19;;;;;;;6.47;3.13;;;;;;;;;;4972324;28;20030;-64
2021/08/19 01:37:45;;;;;;;4.55;3.10;;;;;;;;;;4978005;28;20035;-65
2021/08/19 01:40:12;;;;;;;5.07;3.00;;;;;;;;;;4978638;28;20030;-65
2021/08/19 01:42:38;;;;;;;7.22;3.17;;;;;;;;;;4975394;28;20481;-66
2021/08/19 01:45:04;;;;;;;5.13;3.10;;;;;;;;;;4973155;28;20489;-66
2021/08/19 01:47:31;;;;;;;5.93;3.47;;;;;;;;;;4963171;28;20083;-66
2021/08/19 01:49:57;;;;;;;5.05;3.20;;;;;;;;;;4953674;29;20031;-64
2021/08/19 01:52:23;;;;;;;6.63;3.15;;;;;;;;;;4949262;28;20034;-65
2021/08/19 01:54:49;;;;;;;5.05;3.20;;;;;;;;;;4952173;28;20031;-65
2021/08/19 01:57:15;;;;;;;6.15;3.58;;;;;;;;;;4953591;28;20042;-65
2021/08/19 01:59:41;;;;;;;5.70;3.05;;;;;;;;;;4953302;29;20082;-66
2021/08/19 02:02:07;;;;;;;4.95;3.40;;;;;;;;;;4954360;28;20117;-66
2021/08/19 02:04:33;;;;;;;4.68;3.20;;;;;;;;;;4952782;28;20489;-65
2021/08/19 02:06:59;;;;;;;5.22;3.30;;;;;;;;;;4949355;29;20471;-65
2021/08/19 02:09:26;;;;;;;4.57;3.47;;;;;;;;;;4961600;28;20472;-65
2021/08/19 02:11:52;;;;;;;4.43;3.00;;;;;;;;;;4949220;28;20765;-66
2021/08/19 02:14:18;;;;;;;6.55;3.60;;;;;;;;;;4952626;28;20039;-64
2021/08/19 02:16:44;;;;;;;3.63;2.88;;;;;;;;;;4953111;28;20111;-64
2021/08/19 02:19:11;;;;;;;4.60;3.20;;;;;;;;;;4957661;28;20083;-65
2021/08/19 02:21:37;;;;;;;5.60;3.40;;;;;;;;;;4953332;28;20027;-64
2021/08/19 02:24:03;;;;;;;6.97;2.97;;;;;;;;;;4954802;28;20031;-65
2021/08/19 02:26:29;;;;;;;5.13;3.20;;;;;;;;;;4954231;28;20058;-66
2021/08/19 02:28:55;;;;;;;5.60;3.40;;;;;;;;;;4948020;28;20038;-65
2021/08/19 02:31:22;;;;;;;4.43;2.92;;;;;;;;;;4954995;28;20035;-66
2021/08/19 02:33:50;;;;;;;4.65;3.22;;;;;;;;;;4954458;28;20031;-66
2021/08/19 02:36:16;;;;;;;4.47;3.38;;;;;;;;;;4952886;28;20031;-65
2021/08/19 02:38:42;;;;;;;7.40;3.10;;;;;;;;;;4952040;29;20067;-65
2021/08/19 02:41:08;;;;;;;7.15;3.58;;;;;;;;;;4957531;28;20083;-65
2021/08/19 02:43:40;;;;;;;6.32;3.38;;;;;;;;;;4957059;28;20031;-65
2021/08/19 02:46:07;;;;;;;4.22;3.15;;;;;;;;;;4953136;28;20023;-65
2021/08/19 02:48:33;;;;;;;5.18;3.42;;;;;;;;;;4958982;28;20039;-67
2021/08/19 02:50:59;;;;;;;5.65;3.30;;;;;;;;;;4966635;28;20031;-65
2021/08/19 02:53:25;;;;;;;5.97;3.58;;;;;;;;;;4967130;28;20038;-65
2021/08/19 02:55:51;;;;;;;6.80;3.28;;;;;;;;;;4964864;28;20024;-66
2021/08/19 02:58:17;;;;;;;4.43;3.15;;;;;;;;;;4963848;28;20034;-64
2021/08/19 03:00:43;;;;;;;4.88;3.20;;;;;;;;;;4958936;28;20031;-66
2021/08/19 03:03:09;;;;;;;5.80;3.28;;;;;;;;;;4955844;28;20465;-64
2021/08/19 03:05:37;;;;;;;5.20;3.25;;;;;;;;;;4957471;28;20016;-65
2021/08/19 03:08:03;;;;;;;6.53;3.03;;;;;;;;;;4956803;28;20065;-65
2021/08/19 03:10:29;;;;;;;4.72;2.85;;;;;;;;;;4963011;28;20019;-64
2021/08/19 03:12:55;;;;;;;4.97;3.20;;;;;;;;;;4957434;28;20113;-64
2021/08/19 03:15:21;;;;;;;6.03;3.55;;;;;;;;;;4960489;28;20031;-64
2021/08/19 03:17:47;;;;;;;4.47;3.35;;;;;;;;;;4958571;28;20099;-65
2021/08/19 03:20:14;;;;;;;5.82;3.25;;;;;;;;;;4964992;28;20038;-65
2021/08/19 03:22:40;;;;;;;6.07;3.30;;;;;;;;;;4964802;28;20075;-66
2021/08/19 03:25:08;;;;;;;6.00;3.30;;;;;;;;;;4962899;28;20023;-67
2021/08/19 03:27:34;;;;;;;4.97;3.35;;;;;;;;;;4962833;28;20023;-64
2021/08/19 03:30:01;;;;;;;7.43;3.63;;;;;;;;;;4958623;28;20039;-64
2021/08/19 03:32:27;;;;;;;8.02;3.30;;;;;;;;;;4955781;28;20433;-65
2021/08/19 03:34:53;;;;;;;6.15;3.70;;;;;;;;;;4957830;28;20455;-66
2021/08/19 03:37:19;;;;;;;6.10;3.30;;;;;;;;;;4957634;28;20036;-65
2021/08/19 03:39:45;;;;;;;4.57;3.00;;;;;;;;;;4946230;29;20065;-65
2021/08/19 03:42:11;;;;;;;6.72;3.70;;;;;;;;;;4956470;28;20020;-66
2021/08/19 03:44:38;;;;;;;5.22;3.15;;;;;;;;;;4963455;28;20034;-66
2021/08/19 03:47:05;;;;;;;7.47;3.70;;;;;;;;;;4965255;28;20130;-65
2021/08/19 03:49:31;;;;;;;6.22;3.53;;;;;;;;;;4975107;28;20058;-65
2021/08/19 03:51:57;;;;;;;4.50;3.20;;;;;;;;;;4975299;28;20070;-64
2021/08/19 03:54:23;;;;;;;6.63;3.38;;;;;;;;;;4971606;28;20409;-64
2021/08/19 03:56:50;;;;;;;6.00;3.15;;;;;;;;;;4975093;28;20493;-64
2021/08/19 03:59:16;;;;;;;7.85;3.33;;;;;;;;;;4974844;28;20031;-64
2021/08/19 04:01:42;;;;;;;8.25;3.60;;;;;;;;;;4974080;28;20376;-65
2021/08/19 04:04:08;;;;;;;6.57;3.58;;;;;;;;;;4969774;28;20048;-65
2021/08/19 04:06:34;;;;;;;6.78;3.63;;;;;;;;;;4973955;28;20031;-65
2021/08/19 04:09:01;;;;;;;8.48;3.58;;;;;;;;;;4975277;28;20421;-69
2021/08/19 04:11:27;;;;;;;6.38;3.50;;;;;;;;;;4977041;28;20027;-67
2021/08/19 04:13:53;;;;;;;6.40;3.70;;;;;;;;;;4974171;28;20485;-64
2021/08/19 04:16:19;;;;;;;10.40;4.00;;;;;;;;;;4974552;28;20035;-66
2021/08/19 04:18:45;;;;;;;5.88;3.28;;;;;;;;;;4974863;28;20030;-65
2021/08/19 04:21:12;;;;;;;8.05;3.60;;;;;;;;;;4974817;28;20134;-64
2021/08/19 04:23:42;;;;;;;7.88;4.05;;;;;;;;;;4974089;28;20102;-65
2021/08/19 04:26:08;;;;;;;9.20;3.45;;;;;;;;;;4979299;28;20118;-72
2021/08/19 04:28:34;;;;;;;9.27;3.60;;;;;;;;;;4975093;28;20035;-66
2021/08/19 04:31:00;;;;;;;7.15;3.80;;;;;;;;;;4978937;28;20023;-70
2021/08/19 04:33:28;;;;;;;5.72;3.55;;;;;;;;;;4979451;28;20086;-75
2021/08/19 04:35:55;;;;;;;8.82;3.97;;;;;;;;;;4971346;28;20091;-74
2021/08/19 04:38:21;;;;;;;8.95;3.60;;;;;;;;;;4980493;28;20401;-74
2021/08/19 04:40:47;;;;;;;7.80;3.70;;;;;;;;;;4977673;28;20023;-70
2021/08/19 04:43:13;;;;;;;6.70;3.85;;;;;;;;;;4974620;28;20042;-70
2021/08/19 04:45:39;;;;;;;6.25;3.95;;;;;;;;;;4974970;28;20055;-72
2021/08/19 04:48:05;;;;;;;8.48;3.88;;;;;;;;;;4968321;28;20054;-67
2021/08/19 04:50:31;;;;;;;7.55;3.97;;;;;;;;;;4973626;28;20035;-70
2021/08/19 04:52:58;;;;;;;11.50;4.00;;;;;;;;;;4977693;28;20030;-71
2021/08/19 04:55:24;;;;;;;11.73;3.67;;;;;;;;;;4973388;28;20362;-71
2021/08/19 04:57:50;;;;;;;15.00;4.13;;;;;;;;;;4974210;28;20497;-67
2021/08/19 05:00:16;;;;;;;11.45;4.20;;;;;;;;;;4977735;28;20039;-67
2021/08/19 05:02:42;;;;;;;13.65;4.15;;;;;;;;;;4974489;28;20536;-68
2021/08/19 05:05:08;;;;;;;8.40;3.95;;;;;;;;;;4974439;28;20358;-67
2021/08/19 05:07:34;;;;;;;11.35;3.80;;;;;;;;;;4973744;28;20445;-67
2021/08/19 05:10:00;;;;;;;12.07;4.20;;;;;;;;;;4973989;28;20027;-68
2021/08/19 05:12:26;;;;;;;6.20;3.95;;;;;;;;;;4974392;28;20366;-68
2021/08/19 05:14:52;;;;;;;6.00;3.50;;;;;;;;;;4974191;28;20496;-67
2021/08/19 05:17:21;;;;;;;7.25;3.88;;;;;;;;;;4973864;28;20093;-67
2021/08/19 05:19:47;;;;;;;6.63;3.45;;;;;;;;;;4973053;28;20386;-67
2021/08/19 05:22:15;;;;;;;8.90;3.42;;;;;;;;;;4979708;28;20027;-67
2021/08/19 05:24:41;;;;;;;7.95;4.15;;;;;;;;;;4975069;28;20144;-72
2021/08/19 05:27:07;;;;;;;9.45;4.00;;;;;;;;;;4978134;28;20038;-69
2021/08/19 05:29:37;;;;;;;8.43;4.13;;;;;;;;;;4974071;28;20078;-69
2021/08/19 05:32:06;;;;;;;6.55;3.95;;;;;;;;;;4975285;28;20561;-68
2021/08/19 05:34:32;;;;;;;9.98;4.10;;;;;;;;;;4975265;28;20022;-68
2021/08/19 05:36:58;;;;;;;11.05;4.32;;;;;;;;;;4976496;28;20587;-67
2021/08/19 05:39:24;;;;;;;8.20;4.18;;;;;;;;;;4964858;28;20692;-67
2021/08/19 05:41:52;;;;;;;13.43;4.53;;;;;;;;;;4950829;28;20678;-71
2021/08/19 05:44:18;;;;;;;10.50;4.13;;;;;;;;;;4983533;28;20129;-67
2021/08/19 05:46:45;;;;;;;12.40;4.85;;;;;;;;;;4971847;28;20035;-66
2021/08/19 05:49:11;;;;;;;8.15;4.03;;;;;;;;;;4972613;28;20033;-68
2021/08/19 05:51:37;;;;;;;9.38;4.05;;;;;;;;;;4980061;28;20032;-68
2021/08/19 05:54:03;;;;;;;6.72;4.00;;;;;;;;;;4972845;28;20642;-67
2021/08/19 05:56:30;;;;;;;6.80;4.10;;;;;;;;;;4973009;28;20049;-67
2021/08/19 05:58:56;;;;;;;10.07;4.22;;;;;;;;;;4978604;28;20030;-68
2021/08/19 06:01:22;;;;;;;8.20;4.63;;;;;;;;;;4981368;28;20030;-68
2021/08/19 06:03:49;;;;;;;8.50;4.20;;;;;;;;;;4980077;28;20054;-65
2021/08/19 06:06:17;;;;;;;10.55;4.70;;;;;;;;;;4974303;28;20366;-68
2021/08/19 06:08:43;;;;;;;12.38;5.15;;;;;;;;;;4975970;28;20444;-68
2021/08/19 06:11:09;;;;;;;11.05;4.75;;;;;;;;;;4977913;28;20057;-69
2021/08/19 06:13:36;;;;;;;10.93;4.90;;;;;;;;;;4972864;28;20477;-65
2021/08/19 06:16:02;;;;;;;9.93;4.80;;;;;;;;;;4976804;28;20381;-69
2021/08/19 06:18:28;;;;;;;16.85;4.95;;;;;;;;;;4972226;28;20037;-79
2021/08/19 06:20:54;;;;;;;7.85;4.22;;;;;;;;;;4969389;28;20033;-86
2021/08/19 06:23:23;;;;;;;12.65;5.15;;;;;;;;;;4976793;28;20515;-81
2021/08/19 06:25:59;;;;;;;11.05;4.65;;;;;;;;;;4951724;28;20030;-74
2021/08/19 06:28:30;;;;;;;14.45;4.85;;;;;;;;;;4973248;28;20049;-74
2021/08/19 06:30:57;;;;;;;10.45;4.35;;;;;;;;;;4971456;28;20030;-74
2021/08/19 06:33:23;;;;;;;7.15;4.13;;;;;;;;;;4976477;28;20084;-78
2021/08/19 06:35:49;;;;;;;6.70;4.15;;;;;;;;;;4973404;28;20026;-70
2021/08/19 06:38:15;;;;;;;14.05;4.40;;;;;;;;;;4974906;28;20385;-68
2021/08/19 06:40:42;;;;;;;10.82;4.07;;;;;;;;;;4971910;28;20031;-68
2021/08/19 06:43:08;;;;;;;10.45;4.22;;;;;;;;;;4977968;28;20026;-69
2021/08/19 06:48:20;;;;;;;11.52;4.05;;;;;;;;;;4952526;28;20051;-78
2021/08/19 06:50:47;;;;;;;7.45;3.60;;;;;;;;;;4953071;28;20493;-71
2021/08/19 06:53:15;;;;;;;6.78;3.47;;;;;;;;;;4961725;28;20058;-75
2021/08/19 06:55:41;;;;;;;7.38;3.55;;;;;;;;;;4949027;28;20042;-72
2021/08/19 06:58:20;;;;;;;5.50;3.42;;;;;;;;;;4956015;28;20051;-74
2021/08/19 07:00:46;;;;;;;10.63;3.92;;;;;;;;;;4954484;28;20138;-72
2021/08/19 07:03:19;;;;;;;10.63;4.32;;;;;;;;;;4954215;28;20178;-77
2021/08/19 07:05:55;;;;;;;;;;;;;;;;;;;;;
2021/08/19 07:08:22;;;;;;;8.90;3.47;;;;;;;;;;4952267;28;20027;-68
2021/08/19 07:10:48;;;;;;;13.93;4.05;;;;;;;;;;4957233;28;20030;-82
2021/08/19 07:13:16;;;;;;;6.07;3.50;;;;;;;;;;4941624;29;20020;-78
2021/08/19 07:15:45;;;;;;;5.00;3.03;;;;;;;;;;4951923;28;20599;-81
2021/08/19 07:18:11;;;;;;;5.65;3.50;;;;;;;;;;4959489;28;20046;-75
2021/08/19 07:20:37;;;;;;;5.25;3.40;;;;;;;;;;4952164;28;20177;-71
2021/08/19 07:23:03;;;;;;;5.95;3.50;;;;;;;;;;4965053;28;20035;-69
2021/08/19 07:25:29;;;;;;;6.75;3.65;;;;;;;;;;4960575;28;20077;-71
2021/08/19 07:27:55;;;;;;;5.90;3.80;;;;;;;;;;4952135;28;20024;-69
2021/08/19 07:30:21;;;;;;;5.65;3.25;;;;;;;;;;4957671;28;20039;-71
2021/08/19 07:32:47;;;;;;;4.82;3.88;;;;;;;;;;4966519;28;20023;-78
2021/08/19 07:35:14;;;;;;;4.60;3.40;;;;;;;;;;4961837;28;20031;-70
2021/08/19 07:37:50;;;;;;;9.77;4.25;;;;;;;;;;4957460;28;20081;-77
2021/08/19 07:40:20;;;;;;;16.02;4.43;;;;;;;;;;4957175;28;20513;-71
2021/08/19 07:42:46;;;;;;;9.77;4.07;;;;;;;;;;4959042;28;20102;-75
2021/08/19 07:45:13;;;;;;;9.93;4.30;;;;;;;;;;4959741;28;20023;-79
2021/08/19 07:50:43;;;;;;;11.25;4.50;;;;;;;;;;4958236;28;20093;-83
2021/08/19 07:53:09;;;;;;;13.55;4.75;;;;;;;;;;4963740;28;20031;-72
2021/08/19 07:55:35;;;;;;;11.38;4.20;;;;;;;;;;4965702;28;20038;-75
2021/08/19 07:58:01;;;;;;;12.07;4.45;;;;;;;;;;4958301;28;20067;-77
2021/08/19 08:00:29;;;;;;;23.75;4.55;;;;;;;;;;4955760;28;20530;-79
2021/08/19 08:02:55;;;;;;;11.68;4.57;;;;;;;;;;4957422;28;20198;-81
2021/08/19 08:05:22;;;;;;;10.65;4.13;;;;;;;;;;4959242;28;20038;-70
2021/08/19 08:07:48;;;;;;;8.20;4.35;;;;;;;;;;4953250;28;20040;-73
2021/08/19 08:10:15;;;;;;;9.88;4.30;;;;;;;;;;4960320;28;20109;-74
2021/08/19 08:12:41;;;;;;;6.18;3.65;;;;;;;;;;4952466;28;20122;-67
2021/08/19 08:15:08;;;;;;;11.73;4.00;;;;;;;;;;4962994;28;20041;-67
2021/08/19 08:17:34;;;;;;;8.45;3.60;;;;;;;;;;4955357;28;20102;-66
2021/08/19 08:20:01;;;;;;;7.53;3.40;;;;;;;;;;4958657;28;20409;-66
2021/08/19 08:22:27;;;;;;;8.27;3.78;;;;;;;;;;4955143;28;20076;-67
2021/08/19 08:24:53;;;;;;;5.68;3.40;;;;;;;;;;4954670;28;20055;-68
2021/08/19 08:27:22;;;;;;;5.88;3.85;;;;;;;;;;4968748;28;20057;-78
2021/08/19 08:29:49;;;;;;;7.13;3.30;;;;;;;;;;4979863;28;20022;-74
2021/08/19 08:32:15;;;;;;;4.60;3.28;;;;;;;;;;4961517;28;20066;-78
2021/08/19 08:34:41;;;;;;;10.07;3.80;;;;;;;;;;4971759;28;20028;-82
2021/08/19 08:37:08;;;;;;;6.63;3.40;;;;;;;;;;4972738;28;20043;-84
2021/08/19 08:39:37;;;;;;;6.03;3.65;;;;;;;;;;4973742;28;20023;-74
2021/08/19 08:42:32;;;;;;;4.80;3.45;;;;;;;;;;4970612;28;20385;-74
2021/08/19 08:45:01;;;;;;;7.05;3.47;;;;;;;;;;4911605;29;20135;-72
2021/08/19 08:47:32;;;;;;;5.30;3.30;;;;;;;;;;4913593;29;20476;-66
2021/08/19 08:49:58;;;;;;;12.75;3.60;;;;;;;;;;4909711;29;20509;-66
2021/08/19 08:52:24;;;;;;;6.57;3.42;;;;;;;;;;4914455;29;20039;-66
2021/08/19 08:54:53;;;;;;;6.45;3.35;;;;;;;;;;4913658;29;20043;-68
2021/08/19 08:57:19;;;;;;;5.97;3.30;;;;;;;;;;4913560;29;20433;-67
2021/08/19 08:59:45;;;;;;;6.90;3.45;;;;;;;;;;4912703;29;20392;-68
2021/08/19 09:02:11;;;;;;;31.35;4.30;;;;;;;;;;4917326;29;20115;-66
2021/08/19 09:04:37;;;;;;;4.18;3.05;;;;;;;;;;4912911;29;20028;-67
2021/08/19 09:07:05;;;;;;;5.20;3.08;;;;;;;;;;4913637;29;20107;-69
2021/08/19 09:09:34;;;;;;;8.63;3.28;;;;;;;;;;4912579;29;20039;-66
2021/08/19 09:12:04;;;;;;;49.58;6.55;;;;;;;;;;4919365;29;20032;-67
2021/08/19 09:14:35;;;;;;;6.80;3.08;;;;;;;;;;4918655;29;20115;-66
2021/08/19 09:17:02;;;;;;;5.88;3.05;;;;;;;;;;4913273;29;20032;-66
2021/08/19 09:19:29;;;;;;;5.38;2.95;;;;;;;;;;4913075;29;20024;-67
2021/08/19 09:21:57;;;;;;;7.70;3.10;;;;;;;;;;4955991;28;20039;-66
2021/08/19 09:24:24;;;;;;;11.40;3.20;;;;;;;;;;4973811;28;20022;-66
2021/08/19 09:26:51;;;;;;;5.60;3.10;;;;;;;;;;4975175;28;20062;-66
2021/08/19 09:29:24;;;;;;;17.58;3.88;;;;;;;;;;4971617;28;20421;-66
2021/08/19 09:31:51;;;;;;;6.43;3.08;;;;;;;;;;4971767;28;20125;-67
2021/08/19 09:34:18;;;;;;;6.15;2.72;;;;;;;;;;4975744;28;20384;-67
2021/08/19 09:36:44;;;;;;;4.55;2.70;;;;;;;;;;4977964;28;20053;-67
2021/08/19 09:39:10;;;;;;;3.83;2.60;;;;;;;;;;4975957;28;20381;-67
2021/08/19 09:41:55;;;;;;;4.53;2.85;;;;;;;;;;4979062;28;20040;-67
2021/08/19 09:44:33;;;;;;;5.47;3.05;;;;;;;;;;4955889;28;20480;-68
2021/08/19 09:47:00;;;;;;;8.85;3.03;;;;;;;;;;4954806;28;20121;-67
2021/08/19 09:49:29;;;;;;;4.82;3.30;;;;;;;;;;4972374;28;20068;-69
2021/08/19 09:52:02;;;;;;;7.03;3.33;;;;;;;;;;4970864;28;20038;-67
2021/08/19 09:54:29;;;;;;;5.55;3.00;;;;;;;;;;4977094;28;20057;-68
2021/08/19 09:56:55;;;;;;;6.63;3.05;;;;;;;;;;4978331;28;20082;-67
2021/08/19 09:59:22;;;;;;;4.10;2.92;;;;;;;;;;4974478;28;20431;-65
2021/08/19 10:01:52;;;;;;;21.55;4.22;;;;;;;;;;4977351;28;20053;-65
2021/08/19 10:04:19;;;;;;;6.75;3.20;;;;;;;;;;4971831;28;20110;-64
2021/08/19 10:06:45;;;;;;;8.45;3.55;;;;;;;;;;4979114;28;20074;-65
2021/08/19 10:09:12;;;;;;;5.63;3.53;;;;;;;;;;4974696;28;20031;-66
2021/08/19 10:11:42;;;;;;;5.13;3.00;;;;;;;;;;4974180;28;20027;-65
2021/08/19 10:14:12;;;;;;;11.93;3.72;;;;;;;;;;4978478;28;20429;-73
2021/08/19 10:16:38;;;;;;;4.93;2.88;;;;;;;;;;4967549;28;20034;-67
2021/08/19 10:19:23;;;;;;;8.70;5.18;;;;;;;;;;4977891;28;20031;-65
2021/08/19 10:21:53;;;;;;;4.43;3.22;;;;;;;;;;4973956;28;20045;-66
2021/08/19 10:24:24;;;;;;;14.88;3.30;;;;;;;;;;4972973;28;20037;-65
2021/08/19 10:27:05;;;;;;;9.38;3.20;;;;;;;;;;4971662;28;20122;-66
2021/08/19 10:29:45;;;;;;;5.82;2.97;;;;;;;;;;4978721;28;20516;-65
2021/08/19 10:32:40;;;;;;;22.35;4.20;;;;;;;;;;4973604;28;20082;-66
2021/08/19 10:35:09;;;;;;;9.32;3.70;;;;;;;;;;4917499;29;20496;-65
2021/08/19 10:37:48;;;;;;;3.70;2.85;;;;;;;;;;4915008;29;20036;-67
2021/08/19 10:40:23;;;;;;;4.55;3.00;;;;;;;;;;4915343;29;20107;-67
2021/08/19 10:42:53;;;;;;;7.43;3.30;;;;;;;;;;4913203;29;20391;-66
2021/08/19 10:45:28;;;;;;;6.20;3.10;;;;;;;;;;4911420;29;20044;-73
2021/08/19 10:47:57;;;;;;;4.15;3.15;;;;;;;;;;4916528;29;20048;-66
2021/08/19 10:50:30;;;;;;;5.72;3.78;;;;;;;;;;4911365;29;20024;-67
2021/08/19 10:53:00;;;;;;;5.97;3.38;;;;;;;;;;4913969;29;20161;-69
2021/08/19 10:55:41;;;;;;;4.72;2.80;;;;;;;;;;4912953;29;20035;-74
2021/08/19 10:58:26;;;;;;;4.25;2.80;;;;;;;;;;4908989;29;20054;-71
2021/08/19 11:01:20;;;;;;;8.35;3.10;;;;;;;;;;4907377;29;20273;-74
2021/08/19 11:03:50;;;;;;;3.88;2.83;;;;;;;;;;4897751;29;20045;-71
2021/08/19 11:06:17;;;;;;;5.45;2.67;;;;;;;;;;4894625;29;20056;-73
2021/08/19 11:08:59;;;;;;;4.43;2.90;;;;;;;;;;4898783;29;20040;-78
2021/08/19 11:11:30;;;;;;;4.68;3.00;;;;;;;;;;4921271;28;20063;-71
2021/08/19 11:14:09;;;;;;;5.15;2.80;;;;;;;;;;4957059;28;20413;-68
2021/08/19 11:16:38;;;;;;;5.28;2.85;;;;;;;;;;4951457;28;20070;-68
2021/08/19 11:19:15;;;;;;;5.43;3.08;;;;;;;;;;4953927;28;20138;-67
2021/08/19 11:21:42;;;;;;;6.30;2.70;;;;;;;;;;4947401;28;20023;-82
2021/08/19 11:24:09;;;;;;;7.50;2.75;;;;;;;;;;4953635;28;20043;-78
2021/08/19 11:26:35;;;;;;;5.55;2.60;;;;;;;;;;4955588;28;20039;-78
2021/08/19 11:29:01;;;;;;;3.42;2.40;;;;;;;;;;4983126;28;20038;-76
2021/08/19 11:31:27;;;;;;;44.95;4.68;;;;;;;;;;4982674;28;20039;-76
2021/08/19 11:33:59;;;;;;;3.50;2.45;;;;;;;;;;4979482;28;20030;-77
2021/08/19 11:36:26;;;;;;;5.30;2.83;;;;;;;;;;4979726;28;20110;-70
2021/08/19 11:39:00;;;;;;;7.13;3.00;;;;;;;;;;4974875;28;20090;-69
2021/08/19 11:41:26;;;;;;;6.07;2.85;;;;;;;;;;4977580;28;20030;-70
2021/08/19 11:43:59;;;;;;;3.72;2.65;;;;;;;;;;4977843;28;20026;-69
2021/08/19 11:46:27;;;;;;;5.93;2.90;;;;;;;;;;4976751;28;20027;-76
2021/08/19 11:48:56;;;;;;;6.65;2.85;;;;;;;;;;4972171;28;20505;-74
2021/08/19 11:51:24;;;;;;;3.67;2.78;;;;;;;;;;4977832;28;20035;-65
2021/08/19 11:53:56;;;;;;;12.13;3.20;;;;;;;;;;4972540;28;20031;-70
2021/08/19 11:56:25;;;;;;;3.57;2.70;;;;;;;;;;4977214;28;20077;-68
2021/08/19 11:58:52;;;;;;;3.90;2.75;;;;;;;;;;4980698;28;20034;-70
2021/08/19 12:01:22;;;;;;;8.52;2.95;;;;;;;;;;4973486;28;20029;-67
2021/08/19 12:03:48;;;;;;;3.13;2.50;;;;;;;;;;4974633;28;20377;-68
2021/08/19 12:06:21;;;;;;;4.68;2.70;;;;;;;;;;4975015;28;20041;-68
2021/08/19 12:09:20;;;;;;;6.93;2.85;;;;;;;;;;4974050;28;20078;-66
2021/08/19 12:11:48;;;;;;;4.82;2.80;;;;;;;;;;4953184;28;20031;-67
2021/08/19 12:14:34;;;;;;;7.60;2.90;;;;;;;;;;4956955;28;20198;-68
2021/08/19 12:17:00;;;;;;;2.75;2.33;;;;;;;;;;4953628;28;20118;-81
2021/08/19 12:19:38;;;;;;;11.80;3.20;;;;;;;;;;4953329;28;20031;-72
2021/08/19 12:22:06;;;;;;;4.85;2.85;;;;;;;;;;4951242;28;20046;-75
2021/08/19 12:24:33;;;;;;;6.57;2.78;;;;;;;;;;4955838;28;20780;-78
2021/08/19 12:27:00;;;;;;;4.45;2.83;;;;;;;;;;4954009;28;20174;-69
2021/08/19 12:29:26;;;;;;;6.07;2.88;;;;;;;;;;4957094;28;20039;-68
2021/08/19 12:31:53;;;;;;;3.97;2.80;;;;;;;;;;4955348;28;20045;-66
2021/08/19 12:34:19;;;;;;;5.70;2.75;;;;;;;;;;4956836;28;20058;-67
2021/08/19 12:36:46;;;;;;;4.75;2.70;;;;;;;;;;4957431;28;20067;-67
2021/08/19 12:39:15;;;;;;;5.00;2.70;;;;;;;;;;4952720;28;20035;-66
2021/08/19 12:41:41;;;;;;;4.70;2.55;;;;;;;;;;4955998;28;20078;-66
2021/08/19 12:44:08;;;;;;;30.10;3.83;;;;;;;;;;4956042;28;20097;-67
2021/08/19 12:46:38;;;;;;;6.13;2.65;;;;;;;;;;4963451;28;20444;-68
2021/08/19 12:49:23;;;;;;;3.22;2.35;;;;;;;;;;4954500;29;20501;-66
2021/08/19 12:51:50;;;;;;;4.65;2.65;;;;;;;;;;4954332;29;20042;-67
2021/08/19 12:54:20;;;;;;;4.85;2.63;;;;;;;;;;4955248;28;20027;-67
2021/08/19 12:56:58;;;;;;;3.88;2.65;;;;;;;;;;4959228;28;20054;-67
2021/08/19 12:59:27;;;;;;;3.88;2.53;;;;;;;;;;4954906;28;20043;-66
2021/08/19 13:01:54;;;;;;;8.32;2.90;;;;;;;;;;4954014;28;20026;-67
2021/08/19 13:04:20;;;;;;;10.85;3.00;;;;;;;;;;4954065;29;20061;-67
2021/08/19 13:06:47;;;;;;;4.53;2.50;;;;;;;;;;4955030;28;20534;-67
2021/08/19 13:09:13;;;;;;;5.07;2.60;;;;;;;;;;4954510;28;20121;-68
2021/08/19 13:11:39;;;;;;;4.45;2.90;;;;;;;;;;4953935;29;20024;-68
2021/08/19 13:14:05;;;;;;;5.15;2.70;;;;;;;;;;4956957;28;20082;-68
2021/08/19 13:16:31;;;;;;;4.63;2.72;;;;;;;;;;4955691;28;20029;-66
2021/08/19 13:18:57;;;;;;;4.35;2.60;;;;;;;;;;4955594;28;20493;-67
2021/08/19 13:21:23;;;;;;;23.63;3.08;;;;;;;;;;4954233;28;20036;-67
2021/08/19 13:23:49;;;;;;;12.40;3.08;;;;;;;;;;4955566;28;20039;-66
2021/08/19 13:26:15;;;;;;;17.33;3.30;;;;;;;;;;4954545;28;20027;-66
2021/08/19 13:28:41;;;;;;;5.80;2.30;;;;;;;;;;4954995;28;20461;-65
2021/08/19 13:31:07;;;;;;;7.32;3.08;;;;;;;;;;4954690;28;20035;-66
2021/08/19 13:33:33;;;;;;;3.92;2.50;;;;;;;;;;4953516;29;20087;-65
2021/08/19 13:35:59;;;;;;;4.20;2.47;;;;;;;;;;4961563;28;20038;-66
2021/08/19 13:38:26;;;;;;;6.38;2.58;;;;;;;;;;4952768;28;20119;-85
2021/08/19 13:40:52;;;;;;;8.90;3.10;;;;;;;;;;4951369;29;20031;-67
2021/08/19 13:43:20;;;;;;;6.32;2.72;;;;;;;;;;4953861;28;20035;-66
2021/08/19 13:45:46;;;;;;;3.53;2.55;;;;;;;;;;4950875;29;20027;-65
2021/08/19 13:48:12;;;;;;;5.05;2.40;;;;;;;;;;4953004;28;20507;-65
2021/08/19 13:50:38;;;;;;;3.83;2.47;;;;;;;;;;4952186;29;20146;-66
2021/08/19 13:53:07;;;;;;;7.68;2.58;;;;;;;;;;4957641;28;20039;-67
2021/08/19 13:55:34;;;;;;;5.43;2.83;;;;;;;;;;4952948;29;20028;-67
2021/08/19 13:58:00;;;;;;;5.53;2.60;;;;;;;;;;4951524;28;20043;-66
2021/08/19 14:00:29;;;;;;;5.93;2.67;;;;;;;;;;4952462;28;20027;-66
2021/08/19 14:02:55;;;;;;;6.20;2.95;;;;;;;;;;4951921;28;20418;-66
2021/08/19 14:05:21;;;;;;;6.82;3.03;;;;;;;;;;4952016;28;20389;-66
2021/08/19 14:07:50;;;;;;;4.05;2.60;;;;;;;;;;4951940;29;20039;-66
2021/08/19 14:10:16;;;;;;;7.25;2.85;;;;;;;;;;4953043;28;20023;-69
2021/08/19 14:12:43;;;;;;;13.77;2.97;;;;;;;;;;4951641;28;20836;-67
2021/08/19 14:15:09;;;;;;;8.15;2.95;;;;;;;;;;4956276;28;20396;-65
2021/08/19 14:17:35;;;;;;;4.10;2.50;;;;;;;;;;4953295;28;20043;-65
2021/08/19 14:20:01;;;;;;;5.22;2.30;;;;;;;;;;4951062;28;20023;-76
2021/08/19 14:22:32;;;;;;;4.38;2.38;;;;;;;;;;4951396;28;20061;-68
2021/08/19 14:24:58;;;;;;;6.75;2.70;;;;;;;;;;4953243;28;20034;-81
2021/08/19 14:27:24;;;;;;;3.25;2.40;;;;;;;;;;4951320;28;20038;-69
2021/08/19 14:29:50;;;;;;;7.32;2.63;;;;;;;;;;4950241;29;20110;-66
2021/08/19 14:32:16;;;;;;;8.35;2.88;;;;;;;;;;4951052;28;20516;-66
2021/08/19 14:34:42;;;;;;;3.17;2.50;;;;;;;;;;4955200;28;20475;-68
2021/08/19 14:37:10;;;;;;;5.68;2.80;;;;;;;;;;4951692;28;20042;-84
2021/08/19 14:39:40;;;;;;;5.03;2.38;;;;;;;;;;4951086;28;20028;-71
2021/08/19 14:42:06;;;;;;;6.13;3.13;;;;;;;;;;4951436;29;20033;-69
2021/08/19 14:44:33;;;;;;;11.95;2.60;;;;;;;;;;4951496;29;20035;-68
2021/08/19 14:46:59;;;;;;;5.93;2.60;;;;;;;;;;4950677;28;20118;-66
2021/08/19 14:49:25;;;;;;;5.05;2.92;;;;;;;;;;4949969;28;20046;-69